Time;durP1;ratioP1;P1;durP2;ratioP2;P2;SDS_P1;SDS_P2;PMS_P1;PMS_P2;Temp;Humidity;BMP_temperature;BMP_pressure;BME280_temperature;BME280_humidity;BME280_pressure;Samples;Min_cycle;Max_cycle;Signal;HPM_P1;HPM_P2
2022/01/26 00:00:05;;;;;;;117.75;50.63;;;;;;;2.04;90.43;103182.88;5247419;28;20053;-66
2022/01/26 00:08:16;;;;;;;123.38;51.10;;;;;;;2.07;91.61;103196.91;5251954;28;20084;-66
2022/01/26 00:10:47;;;;;;;127.40;52.08;;;;;;;2.00;89.86;103203.06;5250490;28;20144;-66
2022/01/26 00:13:18;;;;;;;114.32;49.95;;;;;;;1.98;89.91;103196.94;5252616;28;20419;-66
2022/01/26 00:15:50;;;;;;;122.82;50.88;;;;;;;1.99;90.48;103189.91;5252934;28;20577;-66
2022/01/26 00:18:23;;;;;;;118.38;49.60;;;;;;;1.95;90.30;103196.94;5253898;28;20417;-66
2022/01/26 00:21:03;;;;;;;121.22;51.33;;;;;;;1.96;91.02;103194.31;5251767;28;20033;-66
2022/01/26 00:26:38;;;;;;;121.05;50.63;;;;;;;1.94;91.10;103193.44;5252771;28;20032;-67
2022/01/26 00:29:13;;;;;;;125.60;51.90;;;;;;;1.94;91.46;103193.44;5255484;28;20025;-66
2022/01/26 00:40:39;;;;;;;123.22;50.05;;;;;;;1.97;91.30;103192.53;5252569;28;20067;-66
2022/01/26 00:43:19;;;;;;;125.57;49.65;;;;;;;1.95;90.93;103182.00;5251562;28;20037;-66
2022/01/26 00:45:56;;;;;;;124.72;51.08;;;;;;;1.94;91.32;103182.03;5245762;28;20446;-66
2022/01/26 00:48:31;;;;;;;126.97;51.08;;;;;;;1.98;92.18;103189.03;5241222;28;20498;-66
2022/01/26 00:51:05;;;;;;;124.13;50.58;;;;;;;1.96;91.72;103186.41;5242626;28;20104;-66
2022/01/26 00:53:45;;;;;;;122.35;51.15;;;;;;;1.96;91.51;103188.16;5253936;28;20405;-66
2022/01/26 00:56:16;;;;;;;126.72;50.58;;;;;;;1.93;91.13;103180.25;5243948;28;20021;-66
2022/01/26 00:58:47;;;;;;;123.35;50.63;;;;;;;1.92;90.81;103186.44;5249435;28;20029;-66
2022/01/26 01:01:19;;;;;;;117.38;48.45;;;;;;;1.90;90.69;103188.19;5251116;28;20033;-67
2022/01/26 01:03:50;;;;;;;126.47;51.63;;;;;;;1.91;91.75;103175.00;5243496;28;20098;-66
2022/01/26 01:06:26;;;;;;;126.22;48.83;;;;;;;1.94;91.98;103182.03;5244252;28;20032;-66
2022/01/26 01:08:58;;;;;;;131.27;51.92;;;;;;;1.92;90.79;103182.03;5241907;28;20028;-66
2022/01/26 01:11:29;;;;;;;121.93;49.60;;;;;;;1.91;90.25;103179.41;5244167;28;20033;-66
2022/01/26 01:14:00;;;;;;;127.25;50.83;;;;;;;1.90;90.12;103181.16;5241109;28;20079;-66
2022/01/26 01:16:32;;;;;;;125.72;50.25;;;;;;;2.02;92.78;103179.38;5242114;28;20390;-66
2022/01/26 01:19:27;;;;;;;123.78;50.58;;;;;;;1.92;90.30;103175.91;5242522;28;20505;-66
2022/01/26 01:22:25;;;;;;;125.80;50.70;;;;;;;1.90;90.71;103169.75;5245075;28;20628;-66
2022/01/26 01:26:07;;;;;;;125.90;51.28;;;;;;;1.92;91.05;103162.72;5241166;28;20071;-66
2022/01/26 01:30:56;;;;;;;128.65;50.15;;;;;;;1.90;91.34;103167.13;5241206;28;20378;-66
2022/01/26 01:33:32;;;;;;;127.95;50.40;;;;;;;1.90;91.37;103159.22;5242134;28;20026;-66
2022/01/26 01:36:05;;;;;;;120.90;48.47;;;;;;;1.86;90.65;103158.34;5244826;28;20623;-66
2022/01/26 01:38:40;;;;;;;124.70;50.05;;;;;;;1.83;89.85;103155.72;5243715;28;20180;-66
2022/01/26 01:41:12;;;;;;;131.52;50.97;;;;;;;1.90;91.96;103153.97;5242646;28;20029;-66
2022/01/26 01:43:43;;;;;;;125.60;50.25;;;;;;;1.86;91.47;103147.84;5241594;28;20033;-66
2022/01/26 01:46:14;;;;;;;127.30;50.10;;;;;;;1.87;91.15;103146.94;5243146;28;20115;-67
2022/01/26 01:48:46;;;;;;;129.00;52.22;;;;;;;1.88;91.29;103142.53;5241907;28;20051;-66
2022/01/26 01:51:18;;;;;;;128.30;50.88;;;;;;;1.87;91.45;103143.44;5240085;28;20119;-67
2022/01/26 01:53:49;;;;;;;129.07;52.80;;;;;;;1.83;91.19;103150.47;5243689;28;20025;-66
2022/01/26 01:56:24;;;;;;;127.15;50.17;;;;;;;1.85;91.41;103155.72;5243472;28;20509;-66
2022/01/26 01:58:58;;;;;;;129.55;51.70;;;;;;;1.83;91.42;103152.22;5249423;28;20020;-66
2022/01/26 02:01:29;;;;;;;127.28;51.35;;;;;;;1.84;91.60;103149.59;5249558;28;20324;-66
2022/01/26 02:04:00;;;;;;;133.57;50.97;;;;;;;1.84;91.51;103143.44;5243890;28;20082;-66
2022/01/26 02:06:32;;;;;;;133.30;50.88;;;;;;;1.90;92.05;103144.31;5242079;28;20642;-66
2022/01/26 02:09:04;;;;;;;120.72;49.10;;;;;;;1.89;92.22;103157.47;5248045;28;20037;-66
2022/01/26 02:11:35;;;;;;;127.00;51.55;;;;;;;1.84;90.93;103140.78;5250511;28;20028;-66
2022/01/26 02:14:13;;;;;;;123.07;47.92;;;;;;;1.84;90.71;103133.81;5253468;28;20498;-66
2022/01/26 02:17:15;;;;;;;129.50;50.90;;;;;;;1.87;92.59;103138.16;5245499;28;20063;-66
2022/01/26 02:51:25;;;;;;;124.93;48.90;;;;;;;1.84;94.21;103101.31;5242809;28;20037;-66
2022/01/26 03:02:01;;;;;;;117.13;46.88;;;;;;;1.84;90.56;103078.53;5257954;28;20032;-66
2022/01/26 03:04:41;;;;;;;114.88;45.67;;;;;;;1.91;92.95;103074.97;5246316;28;20057;-66
2022/01/26 03:07:22;;;;;;;121.05;48.50;;;;;;;1.94;93.40;103076.72;5251901;28;20436;-66
2022/01/26 03:10:02;;;;;;;120.32;47.10;;;;;;;1.91;92.05;103076.72;5247977;28;20505;-66
2022/01/26 03:12:43;;;;;;;121.53;47.55;;;;;;;1.89;91.97;103076.72;5259222;28;20033;-66
2022/01/26 03:15:23;;;;;;;118.32;47.17;;;;;;;1.98;92.37;103074.97;5255171;28;20029;-66
2022/01/26 03:18:16;;;;;;;121.57;49.78;;;;;;;1.98;92.44;103060.03;5254445;28;20423;-66
2022/01/26 03:20:47;;;;;;;119.47;46.72;;;;;;;2.00;91.64;103066.16;5246975;28;20562;-66
2022/01/26 03:29:55;;;;;;;118.85;46.75;;;;;;;1.97;91.99;103071.44;5248740;28;20147;-66
2022/01/26 03:34:40;;;;;;;122.95;47.92;;;;;;;2.00;91.59;103078.47;5247579;28;20491;-66
2022/01/26 03:37:13;;;;;;;116.60;46.72;;;;;;;2.04;93.45;103075.78;5250964;28;20090;-66
2022/01/26 03:39:44;;;;;;;119.65;46.75;;;;;;;2.05;94.05;103076.66;5249277;28;20033;-66
2022/01/26 03:42:16;;;;;;;122.07;48.15;;;;;;;2.07;94.33;103073.16;5248441;28;20063;-66
2022/01/26 03:44:47;;;;;;;120.30;46.15;;;;;;;2.10;94.86;103070.47;5254472;28;20483;-66
2022/01/26 03:47:18;;;;;;;119.10;46.90;;;;;;;2.07;93.54;103078.41;5251208;28;20119;-66
2022/01/26 03:49:49;;;;;;;119.28;46.15;;;;;;;2.07;93.89;103078.41;5255254;28;20039;-66
2022/01/26 03:52:21;;;;;;;122.95;48.53;;;;;;;2.09;92.94;103062.59;5258130;28;20375;-66
2022/01/26 03:54:52;;;;;;;115.82;48.03;;;;;;;2.07;91.73;103051.19;5254577;28;20167;-66
2022/01/26 03:57:23;;;;;;;118.95;48.00;;;;;;;2.15;91.72;103055.56;5251772;28;20372;-66
2022/01/26 03:59:54;;;;;;;119.88;48.10;;;;;;;2.07;92.58;103057.34;5250731;28;20494;-66
2022/01/26 04:02:26;;;;;;;117.03;46.17;;;;;;;2.05;92.18;103069.66;5251371;28;20025;-66
2022/01/26 04:05:00;;;;;;;116.18;46.20;;;;;;;2.07;92.87;103067.88;5252265;28;20074;-66
2022/01/26 04:07:32;;;;;;;122.57;47.67;;;;;;;2.01;92.49;103077.56;5253286;28;20128;-66
2022/01/26 04:10:17;;;;;;;122.60;47.25;;;;;;;2.07;93.03;103073.16;5249986;28;20039;-66
2022/01/26 04:12:48;;;;;;;;;;;;;;;2.17;93.64;103071.34;5255970;28;20025;-66
2022/01/26 04:15:26;;;;;;;123.22;47.38;;;;;;;2.01;91.50;103073.16;5251296;28;19943;-66
2022/01/26 04:17:59;;;;;;;124.30;49.13;;;;;;;2.15;91.96;103065.22;5248986;28;20029;-66
2022/01/26 04:20:39;;;;;;;125.53;47.40;;;;;;;2.15;92.72;103055.56;5254111;28;20032;-66
2022/01/26 04:23:23;;;;;;;115.35;46.65;;;;;;;2.04;92.39;103067.91;5249375;28;20572;-66
2022/01/26 04:25:56;;;;;;;121.43;47.97;;;;;;;2.05;92.59;103066.13;5242152;28;20496;-66
2022/01/26 04:28:54;;;;;;;118.97;46.65;;;;;;;2.10;93.29;103061.72;5242625;28;20036;-66
2022/01/26 04:31:20;;;;;;;119.80;47.25;;;;;;;2.04;93.30;103067.91;5249520;28;20067;-66
2022/01/26 04:33:53;;;;;;;118.35;46.30;;;;;;;2.11;93.24;103082.78;5248321;28;20032;-66
2022/01/26 04:36:31;;;;;;;123.97;49.17;;;;;;;2.07;93.84;103073.16;5244601;28;20032;-66
2022/01/26 04:39:07;;;;;;;124.18;47.63;;;;;;;2.06;93.84;103067.88;5252374;28;20048;-66
2022/01/26 04:41:49;;;;;;;120.75;47.83;;;;;;;2.12;93.92;103087.16;5249468;28;20124;-66
2022/01/26 04:44:32;;;;;;;127.32;48.80;;;;;;;2.06;94.00;103092.47;5249076;28;20060;-66
2022/01/26 04:47:03;;;;;;;118.53;48.58;;;;;;;2.09;92.97;103095.09;5249449;28;20021;-66
2022/01/26 04:49:34;;;;;;;116.68;45.72;;;;;;;2.04;93.25;103104.75;5247092;28;20031;-66
2022/01/26 04:52:06;;;;;;;122.30;46.90;;;;;;;2.10;92.74;103098.59;5245568;28;21494;-66
2022/01/26 04:54:37;;;;;;;122.25;47.97;;;;;;;2.14;94.39;103106.44;5248669;28;20040;-66
2022/01/26 04:57:08;;;;;;;121.00;48.17;;;;;;;2.11;94.64;103101.22;5247127;28;20430;-66
2022/01/26 04:59:40;;;;;;;120.97;48.60;;;;;;;2.11;94.69;103095.06;5249526;28;20383;-66
2022/01/26 05:02:11;;;;;;;121.60;47.80;;;;;;;2.12;93.69;103102.09;5253465;28;20048;-66
2022/01/26 05:04:42;;;;;;;122.53;48.60;;;;;;;2.12;93.32;103109.97;5254229;28;20041;-67
2022/01/26 05:07:13;;;;;;;114.38;45.65;;;;;;;2.05;94.13;103093.34;5249667;28;20020;-67
2022/01/26 05:09:45;;;;;;;112.80;46.25;;;;;;;2.03;93.51;103086.31;5248363;28;20033;-66
2022/01/26 05:12:17;;;;;;;114.00;46.15;;;;;;;2.00;93.60;103083.72;5246510;28;20491;-66
2022/01/26 05:14:49;;;;;;;122.38;47.85;;;;;;;1.98;93.56;103094.25;5249080;28;20478;-66
2022/01/26 05:17:22;;;;;;;121.40;46.35;;;;;;;2.05;94.18;103090.72;5245102;28;20072;-66
2022/01/26 05:19:57;;;;;;;116.65;46.75;;;;;;;2.02;93.79;103089.84;5248573;28;20427;-66
2022/01/26 05:22:30;;;;;;;115.22;47.05;;;;;;;2.05;93.99;103080.19;5245553;28;20374;-66
2022/01/26 05:25:02;;;;;;;120.28;47.95;;;;;;;1.98;92.87;103060.03;5257133;28;20025;-66
2022/01/26 05:27:33;;;;;;;117.00;48.05;;;;;;;1.97;94.03;103066.16;5246941;28;20386;-66
2022/01/26 05:30:08;;;;;;;115.25;46.95;;;;;;;2.01;94.27;103054.72;5247441;28;20087;-66
2022/01/26 05:32:39;;;;;;;119.05;47.80;;;;;;;1.96;94.06;103046.00;5254050;28;20078;-66
2022/01/26 05:35:10;;;;;;;116.20;47.38;;;;;;;1.91;92.99;103055.66;5254937;28;20021;-66
2022/01/26 05:37:42;;;;;;;120.78;46.92;;;;;;;1.96;94.48;103048.63;5252623;28;20108;-66
2022/01/26 05:40:13;;;;;;;118.07;46.40;;;;;;;2.01;95.35;103045.97;5253430;28;20033;-66
2022/01/26 05:42:44;;;;;;;121.00;45.45;;;;;;;1.91;94.38;103058.31;5248602;28;20025;-66
2022/01/26 05:45:25;;;;;;;118.97;47.45;;;;;;;2.01;95.18;103053.88;5249231;28;20080;-66
2022/01/26 05:47:57;;;;;;;123.75;46.63;;;;;;;1.93;94.33;103059.16;5247433;28;20033;-66
2022/01/26 05:50:28;;;;;;;119.45;47.35;;;;;;;1.90;93.33;103051.31;5247344;28;20036;-66
2022/01/26 05:53:00;;;;;;;121.03;48.22;;;;;;;1.93;94.50;103053.91;5248179;28;20541;-66
2022/01/26 05:55:31;;;;;;;122.78;47.45;;;;;;;1.89;94.14;103054.81;5246405;28;20029;-66
2022/01/26 05:58:03;;;;;;;117.47;48.20;;;;;;;1.89;94.08;103044.28;5249210;28;20029;-66
2022/01/26 06:00:34;;;;;;;118.47;47.33;;;;;;;1.94;95.04;103056.53;5248088;28;20035;-66
2022/01/26 06:03:05;;;;;;;127.03;47.97;;;;;;;1.90;94.58;103046.91;5246770;28;20032;-66
2022/01/26 06:05:36;;;;;;;120.05;48.22;;;;;;;1.90;94.81;103043.41;5247291;28;20032;-66
2022/01/26 06:08:08;;;;;;;123.93;48.92;;;;;;;1.88;93.87;103034.59;5242698;28;20037;-66
2022/01/26 06:10:39;;;;;;;119.20;48.28;;;;;;;1.99;94.76;103029.31;5250833;28;20074;-66
2022/01/26 06:13:10;;;;;;;119.75;47.78;;;;;;;1.95;93.99;103046.88;5246841;28;20085;-66
2022/01/26 06:15:43;;;;;;;120.50;49.00;;;;;;;1.87;94.86;103041.63;5248496;28;20114;-67
2022/01/26 06:18:15;;;;;;;122.95;48.60;;;;;;;1.87;94.46;103049.53;5244944;28;20502;-66
2022/01/26 06:20:46;;;;;;;124.43;48.65;;;;;;;1.85;94.43;103051.31;5247334;28;20029;-66
2022/01/26 06:23:19;;;;;;;131.60;50.88;;;;;;;1.84;94.62;103060.09;5245634;28;20033;-66
2022/01/26 06:25:58;;;;;;;119.57;49.17;;;;;;;1.84;94.95;103059.19;5245551;28;20029;-66
2022/01/26 06:28:29;;;;;;;129.27;50.63;;;;;;;1.93;95.52;103056.53;5246275;28;20029;-66
2022/01/26 06:31:06;;;;;;;123.07;48.55;;;;;;;1.92;95.94;103039.00;5246943;28;20029;-66
2022/01/26 06:33:42;;;;;;;124.88;50.38;;;;;;;1.84;95.06;103040.78;5246134;28;20021;-66
2022/01/26 06:36:16;;;;;;;130.18;49.85;;;;;;;1.94;96.10;103038.09;5250556;28;20044;-66
2022/01/26 06:38:48;;;;;;;122.55;48.70;;;;;;;1.96;95.64;103025.81;5252787;28;20129;-67
2022/01/26 06:41:24;;;;;;;118.00;48.53;;;;;;;1.91;94.92;103039.88;5247352;28;20025;-66
2022/01/26 06:44:03;;;;;;;125.20;48.78;;;;;;;1.88;95.04;103051.31;5245612;28;20506;-66
2022/01/26 06:46:50;;;;;;;119.55;46.92;;;;;;;1.92;95.48;103049.53;5245602;28;20071;-66
2022/01/26 06:51:56;;;;;;;119.88;49.40;;;;;;;1.86;95.76;103052.16;5247664;28;20564;-66
2022/01/26 06:54:28;;;;;;;119.40;48.75;;;;;;;1.81;95.23;103065.38;5252105;28;20108;-66
2022/01/26 06:57:00;;;;;;;127.35;49.63;;;;;;;1.84;96.11;103057.47;5251665;28;20545;-66
2022/01/26 06:59:31;;;;;;;126.90;49.38;;;;;;;1.87;96.46;103062.69;5248479;28;20032;-66
2022/01/26 07:02:03;;;;;;;125.85;52.60;;;;;;;1.87;96.15;103038.16;5243877;28;20098;-66
2022/01/26 07:04:34;;;;;;;124.97;50.88;;;;;;;1.91;97.18;103038.09;5255549;28;20021;-66
2022/01/26 07:07:05;;;;;;;123.45;50.20;;;;;;;1.88;96.71;103038.13;5255156;28;20028;-66
2022/01/26 07:09:36;;;;;;;126.78;51.97;;;;;;;1.86;96.48;103053.06;5259630;28;20025;-66
2022/01/26 07:12:08;;;;;;;130.15;51.53;;;;;;;1.89;97.32;103042.50;5252004;28;20032;-66
2022/01/26 07:22:51;;;;;;;132.63;53.13;;;;;;;1.92;96.67;103065.34;5250147;28;20056;-66
2022/01/26 07:25:22;;;;;;;129.43;53.35;;;;;;;1.92;97.39;103076.72;5248623;28;20653;-66
2022/01/26 07:27:55;;;;;;;124.63;50.55;;;;;;;1.86;97.43;103089.91;5248012;28;20029;-66
2022/01/26 07:30:27;;;;;;;139.55;53.35;;;;;;;1.83;97.39;103092.56;5250206;28;20040;-66
2022/01/26 07:32:58;;;;;;;140.55;54.70;;;;;;;1.80;97.20;103063.59;5252986;28;20032;-66
2022/01/26 07:35:29;;;;;;;147.23;56.58;;;;;;;1.89;98.22;103074.09;5247453;28;20032;-66
2022/01/26 07:38:03;;;;;;;140.60;54.28;;;;;;;1.91;98.16;103082.84;5254920;28;20033;-66
2022/01/26 07:40:35;;;;;;;141.52;54.30;;;;;;;1.88;98.13;103079.34;5255834;28;20123;-66
2022/01/26 07:43:06;;;;;;;142.05;54.05;;;;;;;1.90;98.75;103075.00;5248042;28;20027;-66
2022/01/26 07:45:37;;;;;;;136.43;53.42;;;;;;;1.87;98.57;103075.00;5248632;28;20125;-66
2022/01/26 07:48:08;;;;;;;141.80;55.05;;;;;;;1.82;98.58;103068.88;5242156;28;20033;-66
2022/01/26 07:50:40;;;;;;;142.73;54.25;;;;;;;1.80;98.63;103074.13;5245887;28;20032;-67
2022/01/26 07:53:15;;;;;;;147.35;54.28;;;;;;;1.81;99.21;103070.63;5253332;28;20033;-66
2022/01/26 07:55:48;;;;;;;151.18;55.65;;;;;;;1.79;99.58;103066.25;5251134;28;20024;-66
2022/01/26 07:58:20;;;;;;;138.98;54.95;;;;;;;1.75;99.76;103066.25;5253126;28;20533;-66
2022/01/26 08:00:51;;;;;;;147.48;54.63;;;;;;;1.82;100.00;103077.63;5251673;28;20037;-66
2022/01/26 08:03:23;;;;;;;141.25;54.78;;;;;;;1.82;100.00;103090.78;5252921;28;20504;-66
2022/01/26 08:05:55;;;;;;;142.02;53.17;;;;;;;1.84;100.00;103101.31;5252695;28;20475;-66
2022/01/26 08:08:28;;;;;;;149.27;54.55;;;;;;;1.76;100.00;103114.50;5250158;28;20038;-66
2022/01/26 08:11:00;;;;;;;179.50;57.97;;;;;;;1.76;100.00;103106.59;5250461;28;20391;-66
2022/01/26 08:13:31;;;;;;;142.65;51.53;;;;;;;1.75;100.00;103092.59;5251320;28;20061;-66
2022/01/26 08:16:03;;;;;;;136.75;51.55;;;;;;;1.73;100.00;103096.97;5251951;28;20041;-66
2022/01/26 08:18:34;;;;;;;141.15;52.25;;;;;;;1.77;100.00;103096.09;5247644;28;20469;-66
2022/01/26 08:21:06;;;;;;;142.38;52.42;;;;;;;1.77;100.00;103109.25;5255785;28;20036;-66
2022/01/26 08:23:42;;;;;;;139.25;50.95;;;;;;;1.77;100.00;103106.59;5246697;28;20024;-66
2022/01/26 08:26:18;;;;;;;133.95;50.55;;;;;;;1.83;100.00;103108.34;5252562;28;20506;-67
2022/01/26 08:28:54;;;;;;;143.88;52.80;;;;;;;1.77;100.00;103098.72;5250372;28;20032;-66
2022/01/26 08:31:26;;;;;;;140.20;50.42;;;;;;;1.87;100.00;103093.41;5252662;28;20701;-66
2022/01/26 08:33:57;;;;;;;149.00;53.17;;;;;;;1.86;100.00;103095.19;5252823;28;20024;-66
2022/01/26 08:36:29;;;;;;;151.50;54.13;;;;;;;1.83;100.00;103092.56;5254084;28;20028;-66
2022/01/26 08:39:00;;;;;;;142.15;50.03;;;;;;;1.94;100.00;103090.75;5251807;28;20110;-66
2022/01/26 08:41:31;;;;;;;144.23;52.47;;;;;;;1.96;100.00;103096.88;5251478;28;20568;-67
2022/01/26 08:44:03;;;;;;;149.35;51.92;;;;;;;1.90;100.00;103096.91;5251741;28;20115;-66
2022/01/26 08:46:35;;;;;;;138.70;50.00;;;;;;;1.90;100.00;103096.06;5256573;28;20032;-66
2022/01/26 08:49:06;;;;;;;143.60;51.25;;;;;;;1.87;100.00;103101.31;5251943;28;20425;-66
2022/01/26 08:51:38;;;;;;;149.18;53.90;;;;;;;1.84;100.00;103099.59;5254766;28;20510;-66
2022/01/26 08:54:11;;;;;;;142.15;52.20;;;;;;;1.91;100.00;103098.66;5252715;28;20086;-66
2022/01/26 08:56:42;;;;;;;146.25;52.13;;;;;;;1.90;100.00;103112.72;5249304;28;20043;-66
2022/01/26 08:59:13;;;;;;;137.55;49.22;;;;;;;1.93;100.00;103103.91;5256135;28;20021;-67
2022/01/26 09:01:45;;;;;;;132.02;48.63;;;;;;;1.94;100.00;103116.22;5252467;28;20454;-66
2022/01/26 09:04:16;;;;;;;139.25;50.38;;;;;;;2.00;100.00;103108.28;5253047;28;20040;-67
2022/01/26 09:06:53;;;;;;;133.02;51.10;;;;;;;1.94;100.00;103108.31;5252976;28;20030;-66
2022/01/26 09:09:31;;;;;;;133.43;49.42;;;;;;;1.99;100.00;103095.13;5253631;28;20078;-66
2022/01/26 09:12:07;;;;;;;134.65;49.72;;;;;;;1.98;100.00;103098.66;5252099;28;20166;-67
2022/01/26 09:14:38;;;;;;;126.00;49.72;;;;;;;1.97;100.00;103097.75;5252520;28;20095;-66
2022/01/26 09:17:11;;;;;;;126.22;49.03;;;;;;;2.07;100.00;103109.13;5250130;28;20028;-66
2022/01/26 09:19:44;;;;;;;129.68;48.25;;;;;;;2.04;100.00;103101.25;5250529;28;20584;-66
2022/01/26 09:22:17;;;;;;;119.63;48.28;;;;;;;2.07;100.00;103103.84;5248102;28;20048;-66
2022/01/26 09:24:48;;;;;;;122.63;47.08;;;;;;;2.15;100.00;103107.34;5252185;28;20046;-66
2022/01/26 09:27:19;;;;;;;128.70;49.17;;;;;;;2.10;100.00;103114.38;5250563;28;20029;-66
2022/01/26 09:29:51;;;;;;;128.23;47.60;;;;;;;2.18;100.00;103122.25;5252015;28;20025;-66
2022/01/26 09:32:22;;;;;;;119.43;46.60;;;;;;;2.14;100.00;103122.25;5252257;28;20078;-67
2022/01/26 09:34:54;;;;;;;113.78;46.20;;;;;;;2.16;100.00;103123.13;5249710;28;20024;-66
2022/01/26 09:37:25;;;;;;;119.00;47.78;;;;;;;2.16;100.00;103125.75;5251349;28;20041;-66
2022/01/26 09:39:56;;;;;;;119.63;46.40;;;;;;;2.22;100.00;103121.34;5253481;28;20115;-67
2022/01/26 09:42:28;;;;;;;121.90;46.85;;;;;;;2.32;100.00;103108.13;5250899;28;20036;-67
2022/01/26 09:45:00;;;;;;;129.30;48.53;;;;;;;2.35;100.00;103097.56;5251202;28;20028;-66
2022/01/26 09:47:31;;;;;;;118.03;46.83;;;;;;;2.40;100.00;103096.66;5251113;28;20470;-66
2022/01/26 09:50:04;;;;;;;113.30;45.72;;;;;;;2.34;100.00;103093.19;5249878;28;20107;-66
2022/01/26 09:52:41;;;;;;;108.68;45.22;;;;;;;2.46;100.00;103088.75;5254247;28;20445;-66
2022/01/26 09:55:14;;;;;;;104.90;42.97;;;;;;;2.53;100.00;103090.44;5251827;28;20536;-67
2022/01/26 09:57:45;;;;;;;108.18;43.65;;;;;;;2.47;100.00;103078.16;5252990;28;20039;-66
2022/01/26 10:00:17;;;;;;;103.78;42.90;;;;;;;2.57;100.00;103081.63;5251856;28;20025;-66
2022/01/26 10:02:59;;;;;;;107.18;43.88;;;;;;;2.64;100.00;103085.97;5248159;28;20025;-66
2022/01/26 10:05:42;;;;;;;97.63;41.33;;;;;;;2.70;100.00;103085.94;5250756;28;20051;-66
2022/01/26 10:17:18;;;;;;;95.13;41.60;;;;;;;2.72;100.00;103078.91;5253898;28;20033;-66
2022/01/26 10:19:35;;;;;;;90.05;38.22;;;;;;;2.72;100.00;103085.91;5254241;28;20028;-66
2022/01/26 10:22:08;;;;;;;88.93;40.50;;;;;;;2.70;99.81;103095.59;5252612;28;20037;-66
2022/01/26 10:24:39;;;;;;;86.55;39.97;;;;;;;2.67;100.00;103090.34;5253302;28;20025;-66
2022/01/26 10:27:10;;;;;;;85.95;39.53;;;;;;;2.72;100.00;103076.25;5251827;28;20467;-66
2022/01/26 10:29:45;;;;;;;87.50;39.28;;;;;;;2.70;100.00;103074.50;5253692;28;20722;-66
2022/01/26 10:32:17;;;;;;;83.97;39.83;;;;;;;2.71;100.00;103071.00;5253021;28;20491;-66
2022/01/26 10:34:57;;;;;;;88.72;39.28;;;;;;;2.73;100.00;103075.34;5256447;28;20426;-66
2022/01/26 10:37:29;;;;;;;91.07;39.47;;;;;;;2.77;100.00;103084.13;5255254;28;20090;-66
2022/01/26 10:40:17;;;;;;;85.72;39.25;;;;;;;2.79;100.00;103084.97;5257321;28;20036;-67
2022/01/26 10:43:06;;;;;;;91.68;39.85;;;;;;;2.73;100.00;103111.41;5254550;28;20449;-67
2022/01/26 10:48:29;;;;;;;81.85;39.72;;;;;;;2.69;99.98;103138.66;5256230;28;20062;-67
2022/01/26 10:53:58;;;;;;;93.68;39.80;;;;;;;2.74;100.00;103124.56;5255630;28;20755;-67
2022/01/26 10:56:29;;;;;;;86.28;39.33;;;;;;;2.77;100.00;103121.03;5256884;28;20124;-67
2022/01/26 10:59:00;;;;;;;88.55;39.20;;;;;;;2.75;100.00;103113.13;5255769;28;20035;-67
2022/01/26 11:01:34;;;;;;;87.00;38.97;;;;;;;2.73;100.00;103116.66;5254156;28;20033;-67
2022/01/26 11:04:07;;;;;;;95.63;42.33;;;;;;;2.74;100.00;103118.41;5257126;28;20043;-67
2022/01/26 11:06:42;;;;;;;91.18;40.22;;;;;;;2.78;100.00;103109.59;5257157;28;20025;-67
2022/01/26 11:09:15;;;;;;;91.45;41.55;;;;;;;2.72;100.00;103112.25;5254386;28;20094;-67
2022/01/26 11:11:58;;;;;;;93.82;40.95;;;;;;;2.77;100.00;103113.13;5254877;28;20102;-67
2022/01/26 11:14:48;;;;;;;95.20;40.83;;;;;;;2.79;100.00;103116.63;5253274;28;20045;-66
2022/01/26 11:17:26;;;;;;;90.60;40.00;;;;;;;2.89;100.00;103104.22;5256377;28;20075;-67
2022/01/26 11:19:59;;;;;;;95.13;42.08;;;;;;;2.85;100.00;103098.09;5253346;28;20052;-67
2022/01/26 11:22:32;;;;;;;95.00;40.90;;;;;;;2.83;100.00;103107.78;5256631;28;20420;-67
2022/01/26 11:25:11;;;;;;;96.40;41.75;;;;;;;2.91;100.00;103105.97;5255989;28;20040;-67
2022/01/26 11:27:43;;;;;;;90.70;40.72;;;;;;;2.87;100.00;103098.09;5248423;28;20028;-67
2022/01/26 11:30:30;;;;;;;91.57;40.17;;;;;;;2.88;100.00;103092.81;5255614;28;20103;-67
2022/01/26 11:33:03;;;;;;;83.53;38.78;;;;;;;2.91;100.00;103103.31;5253366;28;20024;-67
2022/01/26 11:35:35;;;;;;;88.18;40.20;;;;;;;2.92;100.00;103094.53;5255095;28;20418;-67
2022/01/26 11:38:29;;;;;;;86.88;38.90;;;;;;;3.02;100.00;103092.69;5251903;28;20040;-67
2022/01/26 11:47:17;;;;;;;89.78;39.40;;;;;;;3.19;100.00;103054.75;5252533;28;20443;-67
2022/01/26 11:50:19;;;;;;;90.35;40.17;;;;;;;3.25;100.00;103068.75;5254516;28;20063;-67
2022/01/26 11:53:04;;;;;;;92.40;42.25;;;;;;;3.23;100.00;103065.25;5254518;28;20033;-67
2022/01/26 11:55:36;;;;;;;89.38;41.05;;;;;;;3.24;100.00;103063.47;5252686;28;20025;-66
2022/01/26 11:58:28;;;;;;;88.55;41.13;;;;;;;3.27;100.00;103056.41;5253461;28;20128;-67
2022/01/26 12:04:01;;;;;;;92.47;40.83;;;;;;;3.30;100.00;103053.75;5250883;28;20113;-66
2022/01/26 12:06:37;;;;;;;83.45;38.10;;;;;;;3.33;100.00;103051.06;5252767;28;20398;-67
2022/01/26 12:09:10;;;;;;;89.22;40.20;;;;;;;3.37;100.00;103051.91;5254346;28;20035;-67
2022/01/26 12:11:42;;;;;;;88.40;41.15;;;;;;;3.37;100.00;103053.69;5252830;28;20067;-67
2022/01/26 12:14:19;;;;;;;93.75;41.13;;;;;;;3.46;100.00;103043.91;5256863;28;20511;-67
2022/01/26 12:16:53;;;;;;;86.07;39.40;;;;;;;3.43;99.86;103045.69;5253886;28;20025;-67
2022/01/26 12:19:36;;;;;;;81.93;38.45;;;;;;;3.51;99.69;103051.78;5252831;28;20029;-67
2022/01/26 12:34:09;;;;;;;89.07;38.88;;;;;;;3.44;98.24;103047.44;5256332;28;20453;-67
2022/01/26 12:37:02;;;;;;;86.47;37.58;;;;;;;3.49;98.20;103056.16;5252721;28;20102;-67
2022/01/26 12:42:39;;;;;;;84.40;39.08;;;;;;;3.52;98.87;103050.88;5250142;28;20037;-67
2022/01/26 12:45:11;;;;;;;82.50;38.63;;;;;;;3.45;97.18;103055.34;5253758;28;20025;-67
2022/01/26 12:47:43;;;;;;;85.85;37.88;;;;;;;3.46;97.63;103056.22;5254870;28;20025;-67
2022/01/26 12:50:15;;;;;;;79.13;37.88;;;;;;;3.45;97.13;103049.19;5250631;28;20644;-67
2022/01/26 12:52:48;;;;;;;82.72;37.67;;;;;;;3.48;97.74;103051.81;5253416;28;20035;-67
2022/01/26 12:55:24;;;;;;;81.50;37.90;;;;;;;3.59;98.27;103051.69;5252984;28;20510;-67
2022/01/26 12:57:55;;;;;;;81.13;38.53;;;;;;;3.52;97.76;103050.88;5251219;28;20060;-67
2022/01/26 13:00:40;;;;;;;78.80;36.72;;;;;;;3.57;98.02;103056.97;5248529;28;20033;-67
2022/01/26 13:03:13;;;;;;;84.32;38.42;;;;;;;3.58;97.84;103055.22;5255261;28;20925;-67
2022/01/26 13:05:44;;;;;;;82.77;38.07;;;;;;;3.63;97.82;103048.13;5252771;28;20029;-67
2022/01/26 13:08:16;;;;;;;79.45;37.45;;;;;;;3.58;97.29;103050.78;5253270;28;20402;-67
2022/01/26 13:10:47;;;;;;;76.13;35.72;;;;;;;3.61;97.55;103042.84;5254342;28;20032;-67
2022/01/26 13:13:21;;;;;;;76.43;37.47;;;;;;;3.61;97.45;103027.00;5254782;28;20055;-67
2022/01/26 13:16:04;;;;;;;76.72;36.90;;;;;;;3.66;98.08;103027.84;5251926;28;20664;-67
2022/01/26 13:19:05;;;;;;;77.70;36.70;;;;;;;3.69;97.30;103019.00;5251419;28;20028;-67
2022/01/26 13:22:05;;;;;;;82.85;38.67;;;;;;;3.64;96.74;103018.16;5252606;28;20043;-67
2022/01/26 13:27:34;;;;;;;73.88;35.80;;;;;;;3.67;96.17;103026.06;5252852;28;20036;-67
2022/01/26 13:30:24;;;;;;;72.40;35.70;;;;;;;3.70;97.03;103024.25;5251805;28;20029;-67
2022/01/26 13:38:56;;;;;;;93.07;45.15;;;;;;;3.79;97.03;103004.78;5249645;28;20165;-67
2022/01/26 13:47:09;;;;;;;94.88;46.75;;;;;;;3.83;95.50;103019.69;5249391;28;20041;-67
2022/01/26 13:55:26;;;;;;;92.00;45.28;;;;;;;3.86;96.72;102997.66;5250281;28;20033;-67
2022/01/26 14:00:57;;;;;;;87.95;44.42;;;;;;;3.86;95.95;102990.59;5249655;28;20537;-66
2022/01/26 14:03:32;;;;;;;87.30;41.78;;;;;;;3.87;95.40;102991.47;5248816;28;20039;-67